createdAt,value
2019-04-19T00:01:49.200Z,48.60
2019-04-19T00:04:16.387Z,49.40
2019-04-19T00:06:49.313Z,49.50
2019-04-19T00:09:32.225Z,50.00
2019-04-19T00:12:03.583Z,50.30
2019-04-19T00:14:17.513Z,50.50
2019-04-19T00:16:46.957Z,50.40
2019-04-19T00:19:34.330Z,50.90
2019-04-19T00:22:11.719Z,51.10
2019-04-19T00:24:16.641Z,51.20
2019-04-19T00:26:46.568Z,50.90
2019-04-19T00:29:22.633Z,51.00
2019-04-19T00:32:04.712Z,51.20
2019-04-19T00:34:16.587Z,51.20
2019-04-19T00:36:45.178Z,50.80
2019-04-19T00:39:37.697Z,50.90
2019-04-19T00:42:18.119Z,50.70
2019-04-19T00:44:53.835Z,51.20
2019-04-19T00:47:23.228Z,50.80
2019-04-19T00:49:49.873Z,50.40
2019-04-19T00:52:14.750Z,50.80
2019-04-19T00:54:46.070Z,51.40
2019-04-19T00:57:16.625Z,51.10
2019-04-19T00:59:40.279Z,51.40
2019-04-19T01:02:10.613Z,51.10
2019-04-19T01:04:37.916Z,51.20
2019-04-19T01:07:07.205Z,51.00
2019-04-19T01:09:46.694Z,51.20
2019-04-19T01:12:20.632Z,51.20
2019-04-19T01:14:46.011Z,51.50
2019-04-19T01:17:22.728Z,51.70
2019-04-19T01:19:45.349Z,51.50
2019-04-19T01:22:14.054Z,52.20
2019-04-19T01:24:41.936Z,52.40
2019-04-19T01:27:12.388Z,52.60
2019-04-19T01:29:45.104Z,52.50
2019-04-19T01:32:13.656Z,52.40
2019-04-19T01:34:39.727Z,52.70
2019-04-19T01:37:11.258Z,53.20
2019-04-19T01:39:56.739Z,53.00
2019-04-19T01:42:24.921Z,52.80
2019-04-19T01:45:00.948Z,52.90
2019-04-19T01:47:41.685Z,53.50
2019-04-19T01:50:12.353Z,53.50
2019-04-19T01:52:50.583Z,54.40
2019-04-19T01:55:09.758Z,54.20
2019-04-19T01:57:30.338Z,53.60
2019-04-19T02:00:02.223Z,53.70
2019-04-19T02:02:30.925Z,54.00
2019-04-19T02:05:06.204Z,54.00
2019-04-19T02:07:32.967Z,54.40
2019-04-19T02:10:13.045Z,54.90
2019-04-19T02:12:42.083Z,55.10
2019-04-19T02:15:06.497Z,55.00
2019-04-19T02:17:36.337Z,54.80
2019-04-19T02:20:05.230Z,55.20
2019-04-19T02:22:36.090Z,55.00
2019-04-19T02:25:02.600Z,54.90
2019-04-19T02:27:37.152Z,55.70
2019-04-19T02:30:09.514Z,55.90
2019-04-19T02:32:50.965Z,57.10
2019-04-19T02:35:22.012Z,57.30
2019-04-19T02:38:00.133Z,57.20
2019-04-19T02:40:45.030Z,56.90
2019-04-19T02:43:01.577Z,58.10
2019-04-19T02:46:03.834Z,57.70
2019-04-19T02:50:53.228Z,58.60
2019-04-19T02:53:18.492Z,58.50
2019-04-19T02:55:33.647Z,59.70
2019-04-19T02:57:59.280Z,61.00
2019-04-19T03:00:54.593Z,61.20
2019-04-19T03:05:45.404Z,63.10
2019-04-19T03:07:59.580Z,63.60
2019-04-19T03:10:30.946Z,64.30
2019-04-19T03:13:12.825Z,64.60
2019-04-19T03:15:49.217Z,65.50
2019-04-19T03:18:24.871Z,65.50
2019-04-19T03:20:43.097Z,65.70
2019-04-19T03:23:15.258Z,65.80
2019-04-19T03:25:40.269Z,66.30
2019-04-19T03:28:10.784Z,70.60
2019-04-19T03:30:51.490Z,71.30
2019-04-19T03:33:29.154Z,72.00
2019-04-19T03:35:56.820Z,71.60
2019-04-19T03:38:19.252Z,73.30
2019-04-19T03:40:50.822Z,75.40
2019-04-19T03:43:25.253Z,76.30
2019-04-19T03:45:56.453Z,77.40
2019-04-19T03:48:21.062Z,78.20
2019-04-19T03:50:58.619Z,77.50
2019-04-19T03:53:34.653Z,76.80
2019-04-19T03:56:01.755Z,78.60
2019-04-19T03:58:09.970Z,81.10
2019-04-19T04:00:34.788Z,80.10
2019-04-19T04:03:10.426Z,81.00
2019-04-19T04:05:38.915Z,82.50
2019-04-19T04:08:13.225Z,83.40
2019-04-19T04:10:47.519Z,83.70
2019-04-19T04:13:30.676Z,84.80
2019-04-19T04:16:05.598Z,83.70
2019-04-19T04:18:23.767Z,84.60
2019-04-19T04:20:55.513Z,86.40
2019-04-19T04:23:29.938Z,85.10
2019-04-19T04:26:01.136Z,84.10
2019-04-19T04:28:41.578Z,88.40
2019-04-19T04:31:05.922Z,90.10
2019-04-19T04:33:38.085Z,91.00
2019-04-19T04:36:16.906Z,91.40
2019-04-19T04:38:31.283Z,91.80
2019-04-19T04:40:54.847Z,93.80
2019-04-19T04:43:36.415Z,95.80
2019-04-19T04:46:20.995Z,95.10
2019-04-19T04:49:04.504Z,95.40
2019-04-19T04:51:42.744Z,96.20
2019-04-19T04:53:57.319Z,95.70
2019-04-19T04:56:35.544Z,95.60
2019-04-19T04:59:08.211Z,95.40
2019-04-19T05:01:43.903Z,96.30
2019-04-19T05:04:16.217Z,96.20
2019-04-19T05:06:54.296Z,95.80
2019-04-19T05:09:25.423Z,95.60
2019-04-19T05:11:59.058Z,95.30
2019-04-19T05:14:21.734Z,95.50
2019-04-19T05:17:02.108Z,95.80
2019-04-19T05:19:20.233Z,94.70
2019-04-19T05:21:46.745Z,95.80
2019-04-19T05:24:21.077Z,95.70
2019-04-19T05:26:59.510Z,96.10
2019-04-19T05:29:18.503Z,97.20
2019-04-19T05:31:41.244Z,97.40
2019-04-19T05:34:36.282Z,99.20
2019-04-19T05:36:55.784Z,99.90
2019-04-19T05:39:39.594Z,99.30
2019-04-19T05:42:03.838Z,99.30
2019-04-19T05:44:43.349Z,99.90
2019-04-19T05:47:10.058Z,99.90
2019-04-19T05:49:39.009Z,99.90
2019-04-19T05:52:14.044Z,99.90
2019-04-19T05:54:22.183Z,99.60
2019-04-19T05:56:55.643Z,95.30
2019-04-19T05:59:35.317Z,98.20
2019-04-19T06:02:05.033Z,96.30
2019-04-19T06:04:43.800Z,94.80
2019-04-19T06:07:12.138Z,97.30
2019-04-19T06:09:23.858Z,94.10
2019-04-19T06:11:53.325Z,97.20
2019-04-19T06:14:45.093Z,96.70
2019-04-19T06:17:27.804Z,95.40
2019-04-19T06:19:56.812Z,95.10
2019-04-19T06:22:29.904Z,95.40
2019-04-19T06:25:00.785Z,95.90
2019-04-19T06:30:36.186Z,94.40
2019-04-19T06:32:56.100Z,93.20
2019-04-19T06:35:19.885Z,93.90
2019-04-19T06:37:39.158Z,93.50
2019-04-19T06:40:16.382Z,93.20
2019-04-19T06:42:49.039Z,92.00
2019-04-19T06:45:26.968Z,94.90
2019-04-19T06:47:50.758Z,91.70
2019-04-19T06:50:11.038Z,90.80
2019-04-19T06:52:41.150Z,90.30
2019-04-19T06:55:19.162Z,91.60
2019-04-19T06:57:51.327Z,90.60
2019-04-19T07:00:25.170Z,89.60
2019-04-19T07:02:43.481Z,89.00
2019-04-19T07:05:22.803Z,90.60
2019-04-19T07:08:14.074Z,91.70
2019-04-19T07:13:02.903Z,89.30
2019-04-19T07:15:48.605Z,87.00
2019-04-19T07:17:58.574Z,86.60
2019-04-19T07:20:30.077Z,88.10
2019-04-19T07:22:58.808Z,86.30
2019-04-19T07:25:42.216Z,85.70
2019-04-19T07:27:55.539Z,85.80
2019-04-19T07:30:18.170Z,85.50
2019-04-19T07:32:57.721Z,85.00
2019-04-19T07:35:39.854Z,87.50
2019-04-19T07:38:19.643Z,85.40
2019-04-19T07:40:39.707Z,84.80
2019-04-19T07:43:05.822Z,84.80
2019-04-19T07:45:53.814Z,84.10
2019-04-19T07:48:08.982Z,85.30
2019-04-19T07:50:43.409Z,83.20
2019-04-19T07:53:04.260Z,81.70
2019-04-19T07:55:38.439Z,82.10
2019-04-19T08:01:12.154Z,81.40
2019-04-19T08:03:39.662Z,83.90
2019-04-19T08:05:59.358Z,80.70
2019-04-19T08:15:59.212Z,79.50
2019-04-19T08:28:16.212Z,81.00
2019-04-19T08:30:45.042Z,80.50
2019-04-19T08:33:08.316Z,79.60
2019-04-19T08:35:42.312Z,77.20
2019-04-19T08:38:12.746Z,76.20
2019-04-19T08:40:53.822Z,75.10
2019-04-19T08:43:25.778Z,77.10
2019-04-19T08:45:40.342Z,75.10
2019-04-19T08:48:18.690Z,77.20
2019-04-19T08:50:50.073Z,76.00
2019-04-19T08:53:33.661Z,75.40
2019-04-19T08:56:03.088Z,72.80
2019-04-19T08:58:33.298Z,73.10
2019-04-19T09:01:11.346Z,76.00
2019-04-19T09:03:40.079Z,73.50
2019-04-19T09:06:25.249Z,71.90
2019-04-19T09:08:38.288Z,71.00
2019-04-19T09:11:06.896Z,70.00
2019-04-19T09:13:37.909Z,71.20
2019-04-19T09:16:07.157Z,70.60
2019-04-19T09:18:45.544Z,70.60
2019-04-19T09:21:05.132Z,70.10
2019-04-19T09:23:30.734Z,67.20
2019-04-19T09:26:03.538Z,66.10
2019-04-19T09:28:46.084Z,65.80
2019-04-19T09:31:09.896Z,63.90
2019-04-19T09:33:29.510Z,63.80
2019-04-19T09:36:00.020Z,66.20
2019-04-19T09:38:41.286Z,64.90
2019-04-19T09:41:00.820Z,62.50
2019-04-19T09:43:39.509Z,62.70
2019-04-19T09:45:55.340Z,61.50
2019-04-19T09:48:43.314Z,63.00
2019-04-19T09:51:07.833Z,62.70
2019-04-19T09:53:52.399Z,59.40
2019-04-19T09:56:17.931Z,58.60
2019-04-19T09:58:40.262Z,59.20
2019-04-19T10:01:12.623Z,58.40
2019-04-19T10:03:46.939Z,58.70
2019-04-19T10:06:11.294Z,58.70
2019-04-19T10:08:40.245Z,59.70
2019-04-19T10:11:10.231Z,59.70
2019-04-19T10:13:39.838Z,59.30
2019-04-19T10:16:16.679Z,61.40
2019-04-19T10:18:52.305Z,57.20
2019-04-19T10:21:27.528Z,57.20
2019-04-19T10:23:54.086Z,57.90
2019-04-19T10:26:36.593Z,56.40
2019-04-19T10:29:16.950Z,56.50
2019-04-19T10:31:40.386Z,52.80
2019-04-19T10:34:09.891Z,52.70
2019-04-19T10:36:38.601Z,52.00
2019-04-19T10:39:11.807Z,51.40
2019-04-19T10:41:40.593Z,51.80
2019-04-19T10:44:15.125Z,53.70
2019-04-19T10:46:39.235Z,52.80
2019-04-19T10:49:14.869Z,52.00
2019-04-19T10:51:46.569Z,51.70
2019-04-19T10:54:15.032Z,51.90
2019-04-19T10:56:46.127Z,52.50
2019-04-19T10:59:16.347Z,50.80
2019-04-19T11:01:45.419Z,50.40
2019-04-19T11:04:15.076Z,49.80
2019-04-19T11:06:45.167Z,45.80
2019-04-19T11:09:14.405Z,44.40
2019-04-19T11:11:43.571Z,42.40
2019-04-19T11:14:12.521Z,42.40
2019-04-19T11:16:41.782Z,43.60
2019-04-19T11:19:17.420Z,41.80
2019-04-19T11:21:41.337Z,43.10
2019-04-19T11:24:10.182Z,41.10
2019-04-19T11:26:38.982Z,40.60
2019-04-19T11:29:08.009Z,38.90
2019-04-19T11:31:41.665Z,39.00
2019-04-19T11:34:11.135Z,38.60
2019-04-19T11:36:39.925Z,37.50
2019-04-19T11:39:10.269Z,36.90
2019-04-19T11:41:38.957Z,36.70
2019-04-19T11:44:13.944Z,37.70
2019-04-19T11:46:38.193Z,36.60
2019-04-19T11:49:07.937Z,35.60
2019-04-19T11:51:36.820Z,33.60
2019-04-19T11:54:06.145Z,33.70
2019-04-19T11:56:46.300Z,32.30
2019-04-19T11:59:34.182Z,32.00
2019-04-19T12:02:13.177Z,31.40
2019-04-19T12:04:42.026Z,29.60
2019-04-19T12:07:10.700Z,31.20
2019-04-19T12:09:40.594Z,29.70
2019-04-19T12:12:09.559Z,29.90
2019-04-19T12:14:38.007Z,29.30
2019-04-19T12:17:07.142Z,29.90
2019-04-19T12:19:45.175Z,29.60
2019-04-19T12:22:05.885Z,28.80
2019-04-19T12:24:35.053Z,27.40
2019-04-19T12:27:05.349Z,28.10
2019-04-19T12:29:41.323Z,27.20
2019-04-19T12:32:05.446Z,28.20
2019-04-19T12:34:34.889Z,27.10
2019-04-19T12:37:04.802Z,27.30
2019-04-19T12:39:34.704Z,26.90
2019-04-19T12:42:03.966Z,27.10
2019-04-19T12:44:33.263Z,27.10
2019-04-19T12:47:02.500Z,25.80
2019-04-19T12:49:31.085Z,26.50
2019-04-19T12:51:59.713Z,26.30
2019-04-19T12:54:28.405Z,25.80
2019-04-19T12:56:58.032Z,26.20
2019-04-19T12:59:26.588Z,26.40
2019-04-19T13:01:59.897Z,26.20
2019-04-19T13:04:30.575Z,25.80
2019-04-19T13:07:10.934Z,25.50
2019-04-19T13:09:39.554Z,24.60
2019-04-19T13:12:08.606Z,25.70
2019-04-19T13:14:37.718Z,25.00
2019-04-19T13:17:06.368Z,25.30
2019-04-19T13:19:35.351Z,24.50
2019-04-19T13:22:04.699Z,24.80
2019-04-19T13:24:34.354Z,25.20
2019-04-19T13:27:03.390Z,25.30
2019-04-19T13:29:33.411Z,24.40
2019-04-19T13:32:02.060Z,24.30
2019-04-19T13:34:31.538Z,24.10
2019-04-19T13:37:09.136Z,24.10
2019-04-19T13:39:52.209Z,24.60
2019-04-19T13:42:23.045Z,24.50
2019-04-19T13:44:52.661Z,24.00
2019-04-19T13:47:22.590Z,24.10
2019-04-19T13:49:53.280Z,23.90
2019-04-19T13:52:22.011Z,24.00
2019-04-19T13:54:50.527Z,23.70
2019-04-19T13:57:19.719Z,23.70
2019-04-19T13:59:56.536Z,24.00
2019-04-19T14:02:20.548Z,23.50
2019-04-19T14:04:51.317Z,23.10
2019-04-19T14:07:21.146Z,23.20
2019-04-19T14:09:49.800Z,22.90
2019-04-19T14:12:18.805Z,22.80
2019-04-19T14:14:48.783Z,22.90
2019-04-19T14:17:17.944Z,23.70
2019-04-19T14:19:46.944Z,22.90
2019-04-19T14:22:15.518Z,23.20
2019-04-19T14:24:46.533Z,23.10
2019-04-19T14:27:15.168Z,22.60
2019-04-19T14:29:43.678Z,21.90
2019-04-19T14:32:13.544Z,22.50
2019-04-19T14:34:43.513Z,22.50
2019-04-19T14:37:14.487Z,22.50
2019-04-19T14:39:42.714Z,22.30
2019-04-19T14:42:11.746Z,22.00
2019-04-19T14:44:40.383Z,21.10
2019-04-19T14:47:09.112Z,21.30
2019-04-19T14:49:38.727Z,21.30
2019-04-19T14:52:07.859Z,21.40
2019-04-19T14:54:36.329Z,21.40
2019-04-19T14:57:05.089Z,21.60
2019-04-19T14:59:34.054Z,22.00
2019-04-19T15:02:04.908Z,22.10
2019-04-19T15:04:35.394Z,21.90
2019-04-19T15:07:05.040Z,22.30
2019-04-19T15:09:35.373Z,21.90
2019-04-19T15:12:04.609Z,22.20
2019-04-19T15:14:34.677Z,23.00
2019-04-19T15:17:04.874Z,22.70
2019-04-19T15:19:33.825Z,21.60
2019-04-19T15:22:02.393Z,21.90
2019-04-19T15:24:31.001Z,22.60
2019-04-19T15:27:00.896Z,22.50
2019-04-19T15:29:31.163Z,21.80
2019-04-19T15:32:00.034Z,22.00
2019-04-19T15:34:29.590Z,21.50
2019-04-19T15:36:59.827Z,21.90
2019-04-19T15:39:28.395Z,22.00
2019-04-19T15:41:58.054Z,21.50
2019-04-19T15:44:27.094Z,21.50
2019-04-19T15:46:55.804Z,21.60
2019-04-19T15:49:24.317Z,21.80
2019-04-19T15:51:54.032Z,21.70
2019-04-19T15:54:23.783Z,22.30
2019-04-19T15:56:52.512Z,21.70
2019-04-19T15:59:23.939Z,21.80
2019-04-19T16:01:52.919Z,21.40
2019-04-19T16:04:41.954Z,21.10
2019-04-19T16:07:19.750Z,20.90
2019-04-19T16:10:03.978Z,21.10
2019-04-19T16:12:37.712Z,21.30
2019-04-19T16:15:08.409Z,21.40
2019-04-19T16:17:37.819Z,21.10
2019-04-19T16:20:09.332Z,21.40
2019-04-19T16:22:38.190Z,21.10
2019-04-19T16:25:07.587Z,20.80
2019-04-19T16:27:36.336Z,21.30
2019-04-19T16:30:07.910Z,21.20
2019-04-19T16:32:37.042Z,21.70
2019-04-19T16:35:07.852Z,21.40
2019-04-19T16:37:37.178Z,21.30
2019-04-19T16:40:09.858Z,21.50
2019-04-19T16:42:38.989Z,21.70
2019-04-19T16:45:08.155Z,21.30
2019-04-19T16:47:37.467Z,21.80
2019-04-19T16:50:07.838Z,21.50
2019-04-19T16:52:36.484Z,22.50
2019-04-19T16:55:07.558Z,21.40
2019-04-19T16:57:36.461Z,21.70
2019-04-19T17:00:08.862Z,21.40
2019-04-19T17:02:37.770Z,21.20
2019-04-19T17:05:08.544Z,21.30
2019-04-19T17:07:37.277Z,21.70
2019-04-19T17:10:07.732Z,21.50
2019-04-19T17:12:37.438Z,21.60
2019-04-19T17:15:15.438Z,21.10
2019-04-19T17:17:46.752Z,21.10
2019-04-19T17:20:17.408Z,21.80
2019-04-19T17:22:46.405Z,21.70
2019-04-19T17:25:17.029Z,22.20
2019-04-19T17:27:45.524Z,21.70
2019-04-19T17:30:14.903Z,21.90
2019-04-19T17:32:44.212Z,22.50
2019-04-19T17:35:14.284Z,22.10
2019-04-19T17:37:42.893Z,22.50
2019-04-19T17:40:11.994Z,22.80
2019-04-19T17:42:40.526Z,23.80
2019-04-19T17:45:09.715Z,24.00
2019-04-19T17:47:40.911Z,24.00
2019-04-19T17:50:09.323Z,25.20
2019-04-19T17:52:39.343Z,26.00
2019-04-19T17:55:18.623Z,25.80
2019-04-19T17:57:39.002Z,26.50
2019-04-19T18:00:08.743Z,26.70
2019-04-19T18:02:37.238Z,26.60
2019-04-19T18:05:08.100Z,27.10
2019-04-19T18:07:41.864Z,27.40
2019-04-19T18:10:11.685Z,27.10
2019-04-19T18:12:39.080Z,27.60
2019-04-19T18:15:09.715Z,28.50
2019-04-19T18:17:39.631Z,28.70
2019-04-19T18:20:13.714Z,28.50
2019-04-19T18:22:55.883Z,28.60
2019-04-19T18:25:10.697Z,29.90
2019-04-19T18:27:46.199Z,29.20
2019-04-19T18:30:11.979Z,30.00
2019-04-19T18:32:45.106Z,29.90
2019-04-19T18:35:21.106Z,30.50
2019-04-19T18:37:45.987Z,31.20
2019-04-19T18:40:15.328Z,31.50
2019-04-19T18:42:51.260Z,32.40
2019-04-19T18:45:16.959Z,33.20
2019-04-19T18:47:45.242Z,34.00
2019-04-19T18:50:15.998Z,35.00
2019-04-19T18:52:52.921Z,35.50
2019-04-19T18:55:24.793Z,36.10
2019-04-19T18:57:49.298Z,36.50
2019-04-19T19:00:18.682Z,36.90
2019-04-19T19:02:53.010Z,36.60
2019-04-19T19:05:18.241Z,37.60
2019-04-19T19:07:49.392Z,37.80
2019-04-19T19:10:25.712Z,38.00
2019-04-19T19:12:50.171Z,38.30
2019-04-19T19:15:19.568Z,38.60
2019-04-19T19:17:51.011Z,38.50
2019-04-19T19:20:22.537Z,38.30
2019-04-19T19:23:05.449Z,38.80
2019-04-19T19:25:33.149Z,39.20
2019-04-19T19:27:50.507Z,39.20
2019-04-19T19:30:20.682Z,39.20
2019-04-19T19:32:53.963Z,39.50
2019-04-19T19:35:22.861Z,39.50
2019-04-19T19:37:50.854Z,39.90
2019-04-19T19:40:29.471Z,39.50
2019-04-19T19:43:20.272Z,40.30
2019-04-19T19:45:36.373Z,40.80
2019-04-19T19:48:12.977Z,40.60
2019-04-19T19:50:49.065Z,41.50
2019-04-19T19:53:24.345Z,40.90
2019-04-19T19:55:46.016Z,41.00
2019-04-19T19:58:00.598Z,41.30
2019-04-19T20:00:38.013Z,41.70
2019-04-19T20:03:08.128Z,41.10
2019-04-19T20:05:31.281Z,41.70
2019-04-19T20:07:57.456Z,41.80
2019-04-19T20:10:33.841Z,42.30
2019-04-19T20:13:00.899Z,42.10
2019-04-19T20:15:29.999Z,42.10
2019-04-19T20:17:59.805Z,42.40
2019-04-19T20:20:33.024Z,42.30
2019-04-19T20:22:58.327Z,42.20
2019-04-19T20:25:37.809Z,42.40
2019-04-19T20:27:59.298Z,42.30
2019-04-19T20:30:31.431Z,42.60
2019-04-19T20:33:01.175Z,42.50
2019-04-19T20:35:29.741Z,42.10
2019-04-19T20:38:01.274Z,42.70
2019-04-19T20:40:30.881Z,42.90
2019-04-19T20:43:22.201Z,42.40
2019-04-19T20:45:39.976Z,42.80
2019-04-19T20:48:07.937Z,43.40
2019-04-19T20:50:46.302Z,43.40
2019-04-19T20:53:19.742Z,43.10
2019-04-19T20:56:11.794Z,43.20
2019-04-19T20:58:24.505Z,43.00
2019-04-19T21:00:48.513Z,43.00
2019-04-19T21:03:22.720Z,42.90
2019-04-19T21:05:50.656Z,43.40
2019-04-19T21:08:22.181Z,42.80
2019-04-19T21:10:55.375Z,43.40
2019-04-19T21:13:21.109Z,43.20
2019-04-19T21:15:48.913Z,43.80
2019-04-19T21:18:22.625Z,43.80
2019-04-19T21:20:47.784Z,44.20
2019-04-19T21:23:22.061Z,43.60
2019-04-19T21:25:53.138Z,44.00
2019-04-19T21:28:16.812Z,44.00
2019-04-19T21:30:51.770Z,43.70
2019-04-19T21:33:18.402Z,44.20
2019-04-19T21:35:53.455Z,44.40
2019-04-19T21:38:22.479Z,44.40
2019-04-19T21:40:47.297Z,44.50
2019-04-19T21:43:16.921Z,44.70
2019-04-19T21:45:48.852Z,44.40
2019-04-19T21:48:19.929Z,44.60
2019-04-19T21:50:49.213Z,44.50
2019-04-19T21:53:16.586Z,44.60
2019-04-19T21:55:54.007Z,44.80
2019-04-19T21:58:18.511Z,44.70
2019-04-19T22:01:05.997Z,45.10
2019-04-19T22:03:32.597Z,44.80
2019-04-19T22:06:10.883Z,45.20
2019-04-19T22:08:36.346Z,45.20
2019-04-19T22:11:02.553Z,45.30
2019-04-19T22:13:37.798Z,45.40
2019-04-19T22:16:03.909Z,45.70
2019-04-19T22:18:39.478Z,45.50
2019-04-19T22:21:05.463Z,45.90
2019-04-19T22:23:36.027Z,45.80
2019-04-19T22:26:14.215Z,45.50
2019-04-19T22:28:33.304Z,45.80
2019-04-19T22:31:05.297Z,45.60
2019-04-19T22:33:32.407Z,45.40
2019-04-19T22:36:04.406Z,45.60
2019-04-19T22:38:31.754Z,45.40
2019-04-19T22:41:06.961Z,45.80
2019-04-19T22:43:31.294Z,46.30
2019-04-19T22:46:04.572Z,46.40
2019-04-19T22:48:29.856Z,46.80
2019-04-19T22:51:03.938Z,46.10
2019-04-19T22:53:34.080Z,46.30
2019-04-19T22:56:11.770Z,46.80
2019-04-19T22:58:33.068Z,47.30
2019-04-19T23:01:00.992Z,46.80
2019-04-19T23:03:35.399Z,46.20
2019-04-19T23:06:01.735Z,46.60
2019-04-19T23:08:33.089Z,46.70
2019-04-19T23:11:05.631Z,46.90
2019-04-19T23:13:31.562Z,46.90
2019-04-19T23:16:05.218Z,46.90
2019-04-19T23:18:32.306Z,46.80
2019-04-19T23:21:05.469Z,47.00
2019-04-19T23:23:34.584Z,47.20
2019-04-19T23:26:19.593Z,47.70
2019-04-19T23:28:36.698Z,47.90
2019-04-19T23:31:08.513Z,47.90
2019-04-19T23:33:32.587Z,47.70
2019-04-19T23:36:06.219Z,48.20
2019-04-19T23:38:34.184Z,48.80
2019-04-19T23:41:01.574Z,48.70
2019-04-19T23:43:35.992Z,49.50
2019-04-19T23:46:01.178Z,50.10
2019-04-19T23:48:31.987Z,49.80
2019-04-19T23:51:00.145Z,50.40
2019-04-19T23:53:33.277Z,50.50
2019-04-19T23:55:58.734Z,50.70
2019-04-19T23:58:33.267Z,50.70
